createdAt,value
2022-09-26T00:01:11.832Z,100.00
2022-09-26T00:03:40.165Z,100.00
2022-09-26T00:06:09.574Z,100.00
2022-09-26T00:08:38.250Z,100.00
2022-09-26T00:11:10.199Z,100.00
2022-09-26T00:13:40.386Z,100.00
2022-09-26T00:16:12.298Z,100.00
2022-09-26T00:18:40.579Z,100.00
2022-09-26T00:21:10.923Z,100.00
2022-09-26T00:23:39.128Z,100.00
2022-09-26T00:26:07.375Z,100.00
2022-09-26T00:28:35.785Z,100.00
2022-09-26T00:31:05.523Z,100.00
2022-09-26T00:33:35.145Z,100.00
2022-09-26T00:36:03.865Z,100.00
2022-09-26T00:38:31.988Z,100.00
2022-09-26T00:41:00.286Z,100.00
2022-09-26T00:43:30.943Z,100.00
2022-09-26T00:46:03.034Z,100.00
2022-09-26T00:48:32.184Z,100.00
2022-09-26T00:51:01.866Z,100.00
2022-09-26T00:53:35.030Z,100.00
2022-09-26T00:56:07.457Z,100.00
2022-09-26T00:58:39.868Z,100.00
2022-09-26T01:01:08.814Z,100.00
2022-09-26T01:03:39.202Z,100.00
2022-09-26T01:06:08.615Z,100.00
2022-09-26T01:08:41.370Z,100.00
2022-09-26T01:11:13.613Z,100.00
2022-09-26T01:13:45.726Z,100.00
2022-09-26T01:16:13.673Z,100.00
2022-09-26T01:18:42.191Z,100.00
2022-09-26T01:21:38.033Z,100.00
2022-09-26T01:24:39.450Z,100.00
2022-09-26T01:27:37.854Z,100.00
2022-09-26T01:30:15.715Z,100.00
2022-09-26T01:33:13.551Z,100.00
2022-09-26T01:35:52.701Z,100.00
2022-09-26T01:38:28.165Z,100.00
2022-09-26T01:41:12.877Z,100.00
2022-09-26T01:43:48.501Z,100.00
2022-09-26T01:46:26.727Z,100.00
2022-09-26T01:48:59.368Z,100.00
2022-09-26T01:51:34.610Z,100.00
2022-09-26T01:54:07.647Z,100.00
2022-09-26T01:56:39.791Z,100.00
2022-09-26T01:59:12.858Z,100.00
2022-09-26T02:01:45.689Z,100.00
2022-09-26T02:04:16.733Z,100.00
2022-09-26T02:06:50.828Z,100.00
2022-09-26T02:09:25.334Z,100.00
2022-09-26T02:11:56.826Z,100.00
2022-09-26T02:14:30.816Z,100.00
2022-09-26T02:17:03.275Z,100.00
2022-09-26T02:19:37.924Z,100.00
2022-09-26T02:22:06.288Z,100.00
2022-09-26T02:24:34.158Z,100.00
2022-09-26T02:27:02.687Z,100.00
2022-09-26T02:29:31.027Z,100.00
2022-09-26T02:32:05.925Z,100.00
2022-09-26T02:34:34.476Z,100.00
2022-09-26T02:37:02.312Z,100.00
2022-09-26T02:39:30.108Z,100.00
2022-09-26T02:42:09.130Z,100.00
2022-09-26T02:45:06.915Z,100.00
2022-09-26T02:48:04.456Z,100.00
2022-09-26T02:50:42.471Z,100.00
2022-09-26T02:53:26.690Z,100.00
2022-09-26T02:56:04.864Z,100.00
2022-09-26T02:58:38.938Z,100.00
2022-09-26T03:01:15.962Z,100.00
2022-09-26T03:03:51.622Z,100.00
2022-09-26T03:06:24.288Z,100.00
2022-09-26T03:08:53.997Z,100.00
2022-09-26T03:11:25.816Z,100.00
2022-09-26T03:13:55.610Z,100.00
2022-09-26T03:16:25.360Z,100.00
2022-09-26T03:18:59.648Z,100.00
2022-09-26T03:21:28.738Z,100.00
2022-09-26T03:23:58.094Z,100.00
2022-09-26T03:26:28.853Z,100.00
2022-09-26T03:28:57.324Z,100.00
2022-09-26T03:31:25.859Z,100.00
2022-09-26T03:33:55.421Z,100.00
2022-09-26T03:36:23.564Z,100.00
2022-09-26T03:38:51.520Z,100.00
2022-09-26T03:41:19.650Z,100.00
2022-09-26T03:43:47.433Z,100.00
2022-09-26T03:46:15.868Z,100.00
2022-09-26T03:48:43.833Z,100.00
2022-09-26T03:51:15.184Z,100.00
2022-09-26T03:53:44.576Z,100.00
2022-09-26T03:56:14.903Z,100.00
2022-09-26T03:58:43.677Z,100.00
2022-09-26T04:01:13.732Z,100.00
2022-09-26T04:03:49.266Z,100.00
2022-09-26T04:06:21.175Z,100.00
2022-09-26T04:08:51.009Z,100.00
2022-09-26T04:11:21.081Z,100.00
2022-09-26T04:13:52.555Z,100.00
2022-09-26T04:16:22.838Z,100.00
2022-09-26T04:18:50.875Z,100.00
2022-09-26T04:21:20.039Z,100.00
2022-09-26T04:23:47.841Z,100.00
2022-09-26T04:26:22.712Z,100.00
2022-09-26T04:28:54.960Z,100.00
2022-09-26T04:31:23.933Z,100.00
2022-09-26T04:33:52.388Z,100.00
2022-09-26T04:36:21.969Z,100.00
2022-09-26T04:38:49.782Z,100.00
2022-09-26T04:41:19.711Z,100.00
2022-09-26T04:43:47.635Z,100.00
2022-09-26T04:46:21.622Z,100.00
2022-09-26T04:48:51.033Z,100.00
2022-09-26T04:51:21.612Z,100.00
2022-09-26T04:53:50.461Z,100.00
2022-09-26T04:56:20.738Z,100.00
2022-09-26T04:58:48.828Z,100.00
2022-09-26T05:01:18.777Z,100.00
2022-09-26T05:03:46.943Z,100.00
2022-09-26T05:06:16.263Z,100.00
2022-09-26T05:08:48.561Z,100.00
2022-09-26T05:11:17.811Z,100.00
2022-09-26T05:13:48.051Z,100.00
2022-09-26T05:16:18.568Z,100.00
2022-09-26T05:18:50.481Z,100.00
2022-09-26T05:21:18.414Z,100.00
2022-09-26T05:24:05.302Z,100.00
2022-09-26T05:26:40.369Z,100.00
2022-09-26T05:29:09.206Z,100.00
2022-09-26T05:31:38.458Z,100.00
2022-09-26T05:34:07.485Z,100.00
2022-09-26T05:36:35.865Z,100.00
2022-09-26T05:39:26.382Z,100.00
2022-09-26T05:41:54.244Z,100.00
2022-09-26T05:44:22.276Z,100.00
2022-09-26T05:46:50.436Z,100.00
2022-09-26T05:49:18.344Z,100.00
2022-09-26T05:51:46.636Z,100.00
2022-09-26T05:54:16.631Z,100.00
2022-09-26T05:56:44.450Z,100.00
2022-09-26T05:59:12.339Z,100.00
2022-09-26T06:01:40.344Z,100.00
2022-09-26T06:04:08.171Z,100.00
2022-09-26T06:06:35.995Z,100.00
2022-09-26T06:09:07.242Z,100.00
2022-09-26T06:11:36.694Z,100.00
2022-09-26T06:14:04.500Z,100.00
2022-09-26T06:16:33.072Z,100.00
2022-09-26T06:19:02.588Z,100.00
2022-09-26T06:21:30.440Z,100.00
2022-09-26T06:23:58.335Z,100.00
2022-09-26T06:26:29.217Z,100.00
2022-09-26T06:29:00.342Z,100.00
2022-09-26T06:31:29.268Z,100.00
2022-09-26T06:33:58.482Z,100.00
2022-09-26T06:36:26.665Z,100.00
2022-09-26T06:38:55.615Z,100.00
2022-09-26T06:41:24.748Z,100.00
2022-09-26T06:43:53.086Z,100.00
2022-09-26T06:46:22.678Z,100.00
2022-09-26T06:48:50.833Z,99.88
2022-09-26T06:51:20.132Z,100.00
2022-09-26T06:53:47.983Z,98.92
2022-09-26T06:56:15.877Z,98.02
2022-09-26T06:58:43.713Z,96.83
2022-09-26T07:01:11.927Z,97.54
2022-09-26T07:03:45.442Z,95.69
2022-09-26T07:06:14.088Z,96.71
2022-09-26T07:11:50.359Z,96.85
2022-09-26T07:14:18.283Z,96.22
2022-09-26T07:16:48.978Z,95.30
2022-09-26T07:19:18.698Z,94.82
2022-09-26T07:21:46.798Z,93.55
2022-09-26T07:24:14.705Z,94.73
2022-09-26T07:26:42.984Z,92.70
2022-09-26T07:29:11.194Z,91.83
2022-09-26T07:31:39.160Z,90.29
2022-09-26T07:34:08.558Z,91.02
2022-09-26T07:36:39.741Z,89.55
2022-09-26T07:39:07.586Z,89.30
2022-09-26T07:41:35.406Z,89.54
2022-09-26T07:47:08.505Z,88.93
2022-09-26T07:49:53.737Z,89.41
2022-09-26T07:52:23.171Z,88.16
2022-09-26T07:54:51.375Z,87.24
2022-09-26T07:57:19.486Z,88.25
2022-09-26T07:59:49.748Z,87.77
2022-09-26T08:02:22.555Z,85.89
2022-09-26T08:04:50.504Z,83.33
2022-09-26T08:07:18.330Z,82.22
2022-09-26T08:09:47.602Z,81.40
2022-09-26T08:12:15.726Z,81.23
2022-09-26T08:14:43.528Z,81.21
2022-09-26T08:17:14.412Z,79.21
2022-09-26T08:19:42.409Z,77.29
2022-09-26T08:22:10.376Z,76.59
2022-09-26T08:24:38.941Z,75.63
2022-09-26T08:27:09.945Z,72.64
2022-09-26T08:29:37.773Z,72.97
2022-09-26T08:32:05.655Z,72.03
2022-09-26T08:34:35.125Z,69.96
2022-09-26T08:37:03.001Z,69.35
2022-09-26T08:39:33.452Z,68.49
2022-09-26T08:42:28.630Z,66.00
2022-09-26T08:45:39.046Z,66.80
2022-09-26T08:48:19.493Z,66.12
2022-09-26T08:50:50.445Z,65.19
2022-09-26T08:53:23.193Z,65.61
2022-09-26T08:55:53.781Z,65.01
2022-09-26T08:58:29.188Z,62.77
2022-09-26T09:01:02.826Z,63.71
2022-09-26T09:03:34.309Z,64.44
2022-09-26T09:06:07.643Z,63.25
2022-09-26T09:08:39.839Z,61.82
2022-09-26T09:11:21.232Z,66.95
2022-09-26T09:14:07.948Z,68.68
2022-09-26T09:16:53.656Z,68.00
2022-09-26T09:19:31.685Z,66.78
2022-09-26T09:22:17.442Z,65.19
2022-09-26T09:24:58.420Z,64.32
2022-09-26T09:28:00.348Z,63.37
2022-09-26T09:30:38.529Z,62.68
2022-09-26T09:33:12.967Z,62.77
2022-09-26T09:35:46.092Z,61.28
2022-09-26T09:38:18.166Z,61.13
2022-09-26T09:40:53.763Z,60.48
2022-09-26T09:43:27.808Z,63.50
2022-09-26T09:46:02.854Z,66.06
2022-09-26T09:48:31.357Z,65.12
2022-09-26T09:51:13.384Z,66.05
2022-09-26T09:53:53.760Z,64.67
2022-09-26T09:56:33.081Z,64.87
2022-09-26T09:59:20.908Z,63.45
2022-09-26T10:01:56.714Z,62.55
2022-09-26T10:04:36.376Z,62.23
2022-09-26T10:07:05.636Z,63.91
2022-09-26T10:09:40.907Z,65.59
2022-09-26T10:12:17.072Z,66.16
2022-09-26T10:14:52.131Z,66.44
2022-09-26T10:17:23.808Z,66.25
2022-09-26T10:19:52.580Z,64.85
2022-09-26T10:22:27.279Z,64.23
2022-09-26T10:25:01.847Z,63.60
2022-09-26T10:27:36.979Z,62.46
2022-09-26T10:30:10.100Z,59.91
2022-09-26T10:32:50.789Z,58.97
2022-09-26T10:35:24.810Z,57.84
2022-09-26T10:38:00.786Z,59.98
2022-09-26T10:40:45.376Z,59.91
2022-09-26T10:43:25.705Z,60.44
2022-09-26T10:45:57.191Z,57.89
2022-09-26T10:48:37.766Z,55.50
2022-09-26T10:51:08.817Z,52.48
2022-09-26T10:53:40.179Z,51.48
2022-09-26T10:56:12.653Z,51.59
2022-09-26T10:58:43.621Z,50.18
2022-09-26T11:01:21.048Z,51.24
2022-09-26T11:03:51.383Z,51.91
2022-09-26T11:06:28.119Z,54.19
2022-09-26T11:09:03.054Z,55.43
2022-09-26T11:11:35.257Z,56.92
2022-09-26T11:14:07.508Z,57.96
2022-09-26T11:16:50.308Z,58.29
2022-09-26T11:19:29.110Z,58.91
2022-09-26T11:22:08.011Z,59.16
2022-09-26T11:24:45.791Z,55.24
2022-09-26T11:27:23.682Z,53.83
2022-09-26T11:29:59.231Z,54.81
2022-09-26T11:32:31.197Z,58.19
2022-09-26T11:35:03.572Z,57.96
2022-09-26T11:38:05.512Z,59.03
2022-09-26T11:40:51.662Z,60.53
2022-09-26T11:43:38.369Z,61.82
2022-09-26T11:46:25.473Z,61.53
2022-09-26T11:49:24.555Z,57.58
2022-09-26T11:52:10.018Z,54.09
2022-09-26T11:54:52.104Z,56.30
2022-09-26T11:57:35.689Z,58.52
2022-09-26T12:00:10.121Z,56.60
2022-09-26T12:02:56.066Z,52.12
2022-09-26T12:05:36.379Z,48.91
2022-09-26T12:08:18.711Z,51.20
2022-09-26T12:10:58.680Z,51.84
2022-09-26T12:13:39.085Z,54.58
2022-09-26T12:16:15.686Z,55.38
2022-09-26T12:18:55.732Z,54.17
2022-09-26T12:21:32.258Z,50.45
2022-09-26T12:24:11.511Z,48.21
2022-09-26T12:26:49.066Z,44.62
2022-09-26T12:29:37.421Z,44.93
2022-09-26T12:32:22.481Z,45.96
2022-09-26T12:35:05.117Z,45.27
2022-09-26T12:37:54.175Z,43.96
2022-09-26T12:40:36.248Z,46.81
2022-09-26T12:43:31.739Z,42.37
2022-09-26T12:46:16.497Z,41.22
2022-09-26T12:48:58.841Z,47.62
2022-09-26T12:51:42.067Z,50.30
2022-09-26T12:54:28.933Z,52.18
2022-09-26T12:57:06.201Z,53.74
2022-09-26T13:00:00.836Z,55.34
2022-09-26T13:02:52.318Z,55.91
2022-09-26T13:05:40.134Z,56.06
2022-09-26T13:08:18.531Z,55.24
2022-09-26T13:10:59.115Z,57.71
2022-09-26T13:13:49.021Z,55.62
2022-09-26T13:16:31.755Z,56.16
2022-09-26T13:19:07.584Z,57.48
2022-09-26T13:21:45.504Z,59.55
2022-09-26T13:24:19.793Z,56.03
2022-09-26T13:26:53.027Z,53.53
2022-09-26T13:29:27.634Z,51.64
2022-09-26T13:32:05.027Z,48.17
2022-09-26T13:34:39.956Z,46.77
2022-09-26T13:37:15.494Z,47.04
2022-09-26T13:39:52.157Z,49.33
2022-09-26T13:42:24.853Z,49.47
2022-09-26T13:45:04.100Z,46.84
2022-09-26T13:47:41.319Z,44.60
2022-09-26T13:50:23.490Z,43.64
2022-09-26T13:53:04.620Z,45.28
2022-09-26T13:55:32.663Z,47.81
2022-09-26T13:58:07.517Z,50.82
2022-09-26T14:00:53.404Z,52.94
2022-09-26T14:03:45.172Z,54.11
2022-09-26T14:06:33.799Z,54.92
2022-09-26T14:09:25.764Z,55.12
2022-09-26T14:12:22.084Z,56.57
2022-09-26T14:15:15.447Z,57.42
2022-09-26T14:18:28.077Z,59.53
2022-09-26T14:21:17.301Z,60.58
2022-09-26T14:23:46.881Z,63.82
2022-09-26T14:26:21.080Z,66.80
2022-09-26T14:28:54.664Z,66.34
2022-09-26T14:31:44.013Z,66.97
2022-09-26T14:34:18.498Z,66.94
2022-09-26T14:36:47.579Z,64.49
2022-09-26T14:39:30.248Z,65.56
2022-09-26T14:41:58.929Z,64.94
2022-09-26T14:44:36.327Z,64.10
2022-09-26T14:47:13.814Z,62.86
2022-09-26T14:49:44.537Z,63.16
2022-09-26T14:52:20.724Z,63.15
2022-09-26T14:54:49.312Z,63.79
2022-09-26T14:57:25.174Z,63.86
2022-09-26T14:59:53.107Z,64.29
2022-09-26T15:02:28.820Z,63.10
2022-09-26T15:05:25.875Z,63.15
2022-09-26T15:07:55.496Z,62.92
2022-09-26T15:10:27.692Z,62.30
2022-09-26T15:13:02.133Z,63.33
2022-09-26T15:15:40.477Z,64.34
2022-09-26T15:18:14.821Z,65.42
2022-09-26T15:20:50.888Z,65.81
2022-09-26T15:23:28.510Z,65.99
2022-09-26T15:26:00.556Z,66.67
2022-09-26T15:28:28.468Z,67.46
2022-09-26T15:31:26.412Z,68.57
2022-09-26T15:33:59.685Z,69.77
2022-09-26T15:36:31.857Z,72.33
2022-09-26T15:39:00.345Z,74.96
2022-09-26T15:41:46.404Z,78.74
2022-09-26T15:44:23.275Z,81.33
2022-09-26T15:46:52.092Z,84.05
2022-09-26T15:49:22.226Z,85.11
2022-09-26T15:51:55.481Z,86.94
2022-09-26T15:54:29.630Z,87.01
2022-09-26T15:57:00.701Z,87.26
2022-09-26T15:59:33.932Z,88.34
2022-09-26T16:02:05.354Z,89.53
2022-09-26T16:04:34.100Z,90.12
2022-09-26T16:07:05.572Z,89.40
2022-09-26T16:09:35.144Z,89.74
2022-09-26T16:12:10.361Z,90.05
2022-09-26T16:14:46.943Z,90.27
2022-09-26T16:17:23.753Z,87.47
2022-09-26T16:19:53.951Z,86.88
2022-09-26T16:22:40.483Z,86.37
2022-09-26T16:25:29.898Z,85.54
2022-09-26T16:28:32.159Z,85.22
2022-09-26T16:31:15.902Z,82.77
2022-09-26T16:33:52.254Z,83.02
2022-09-26T16:36:23.561Z,83.90
2022-09-26T16:38:58.808Z,83.44
2022-09-26T16:44:28.805Z,85.04
2022-09-26T16:47:01.978Z,85.00
2022-09-26T16:49:45.738Z,85.81
2022-09-26T16:52:32.896Z,85.27
2022-09-26T16:55:03.789Z,85.65
2022-09-26T16:57:34.290Z,86.67
2022-09-26T17:00:22.388Z,85.75
2022-09-26T17:02:50.368Z,85.87
2022-09-26T17:05:20.605Z,86.15
2022-09-26T17:07:49.889Z,87.29
2022-09-26T17:10:21.184Z,88.38
2022-09-26T17:12:50.717Z,88.32
2022-09-26T17:15:23.065Z,87.24
2022-09-26T17:17:53.688Z,88.23
2022-09-26T17:20:22.592Z,88.63
2022-09-26T17:22:50.583Z,88.97
2022-09-26T17:25:20.039Z,88.68
2022-09-26T17:27:52.012Z,89.22
2022-09-26T17:30:20.801Z,89.16
2022-09-26T17:32:51.474Z,88.70
2022-09-26T17:35:25.019Z,88.79
2022-09-26T17:37:53.288Z,89.01
2022-09-26T17:40:24.441Z,87.88
2022-09-26T17:42:55.449Z,88.09
2022-09-26T17:45:29.055Z,88.50
2022-09-26T17:47:59.286Z,88.18
2022-09-26T17:50:29.973Z,88.22
2022-09-26T17:52:58.952Z,88.26
2022-09-26T17:55:29.479Z,88.56
2022-09-26T17:57:58.427Z,88.22
2022-09-26T18:00:30.163Z,89.33
2022-09-26T18:03:03.904Z,88.95
2022-09-26T18:05:35.036Z,88.92
2022-09-26T18:08:08.349Z,89.92
2022-09-26T18:10:45.625Z,89.87
2022-09-26T18:13:16.941Z,90.15
2022-09-26T18:15:44.876Z,89.76
2022-09-26T18:18:17.600Z,90.35
2022-09-26T18:20:46.219Z,90.50
2022-09-26T18:23:20.761Z,91.00
2022-09-26T18:25:52.851Z,91.61
2022-09-26T18:28:23.463Z,91.28
2022-09-26T18:30:57.714Z,91.36
2022-09-26T18:33:29.102Z,92.33
2022-09-26T18:35:58.294Z,92.36
2022-09-26T18:38:26.334Z,92.03
2022-09-26T18:40:58.571Z,92.41
2022-09-26T18:43:31.996Z,92.74
2022-09-26T18:46:00.776Z,92.04
2022-09-26T18:48:32.887Z,91.99
2022-09-26T18:51:01.355Z,92.50
2022-09-26T18:53:36.990Z,92.79
2022-09-26T18:56:24.894Z,92.61
2022-09-26T18:58:52.949Z,92.44
2022-09-26T19:01:27.840Z,92.09
2022-09-26T19:03:58.200Z,92.08
2022-09-26T19:06:31.470Z,91.87
2022-09-26T19:09:01.673Z,91.58
2022-09-26T19:11:34.663Z,91.36
2022-09-26T19:14:12.700Z,91.77
2022-09-26T19:16:40.607Z,91.12
2022-09-26T19:19:08.490Z,91.43
2022-09-26T19:21:38.330Z,91.35
2022-09-26T19:24:13.263Z,91.26
2022-09-26T19:26:44.531Z,91.53
2022-09-26T19:29:16.421Z,91.00
2022-09-26T19:31:44.786Z,90.62
2022-09-26T19:34:15.897Z,91.48
2022-09-26T19:36:44.052Z,90.40
2022-09-26T19:39:15.270Z,90.38
2022-09-26T19:41:44.706Z,89.39
2022-09-26T19:44:13.592Z,90.25
2022-09-26T19:46:42.393Z,89.94
2022-09-26T19:49:17.308Z,89.82
2022-09-26T19:51:45.588Z,89.37
2022-09-26T19:54:18.171Z,89.35
2022-09-26T19:56:48.235Z,89.13
2022-09-26T19:59:17.371Z,88.81
2022-09-26T20:01:47.545Z,89.02
2022-09-26T20:04:17.756Z,89.09
2022-09-26T20:06:46.876Z,88.61
2022-09-26T20:09:18.103Z,88.47
2022-09-26T20:11:47.718Z,88.90
2022-09-26T20:14:25.452Z,88.80
2022-09-26T20:16:56.706Z,89.14
2022-09-26T20:19:32.016Z,90.35
2022-09-26T20:22:02.375Z,92.23
2022-09-26T20:24:33.455Z,92.77
2022-09-26T20:27:05.449Z,95.12
2022-09-26T20:29:54.182Z,96.36
2022-09-26T20:32:22.072Z,97.47
2022-09-26T20:34:50.037Z,96.40
2022-09-26T20:37:19.895Z,95.65
2022-09-26T20:39:48.066Z,97.95
2022-09-26T20:42:19.989Z,96.35
2022-09-26T20:44:51.108Z,96.42
2022-09-26T20:47:21.737Z,96.11
2022-09-26T20:49:53.749Z,96.95
2022-09-26T20:52:24.195Z,96.41
2022-09-26T20:54:52.408Z,96.70
2022-09-26T20:57:22.335Z,95.13
2022-09-26T20:59:50.769Z,95.85
2022-09-26T21:02:26.599Z,96.31
2022-09-26T21:04:54.935Z,97.07
2022-09-26T21:07:24.151Z,96.73
2022-09-26T21:09:52.427Z,97.08
2022-09-26T21:12:21.718Z,97.60
2022-09-26T21:14:49.650Z,98.20
2022-09-26T21:17:20.338Z,99.24
2022-09-26T21:19:49.009Z,98.88
2022-09-26T21:22:16.840Z,98.22
2022-09-26T21:24:49.207Z,98.85
2022-09-26T21:27:17.202Z,99.16
2022-09-26T21:29:46.522Z,98.94
2022-09-26T21:32:18.955Z,99.53
2022-09-26T21:34:59.315Z,99.28
2022-09-26T21:37:27.161Z,100.00
2022-09-26T21:39:55.073Z,100.00
2022-09-26T21:42:23.053Z,100.00
2022-09-26T21:44:54.875Z,100.00
2022-09-26T21:47:24.647Z,100.00
2022-09-26T21:49:53.552Z,100.00
2022-09-26T21:52:25.697Z,100.00
2022-09-26T21:54:54.096Z,100.00
2022-09-26T21:57:24.945Z,100.00
2022-09-26T21:59:54.969Z,100.00
2022-09-26T22:02:22.833Z,100.00
2022-09-26T22:04:51.996Z,100.00
2022-09-26T22:07:20.021Z,100.00
2022-09-26T22:09:48.057Z,100.00
2022-09-26T22:12:15.868Z,100.00
2022-09-26T22:14:43.669Z,100.00
2022-09-26T22:17:13.456Z,100.00
2022-09-26T22:19:41.357Z,100.00
2022-09-26T22:22:09.511Z,100.00
2022-09-26T22:24:37.326Z,100.00
2022-09-26T22:27:05.323Z,100.00
2022-09-26T22:29:33.190Z,100.00
2022-09-26T22:32:01.416Z,100.00
2022-09-26T22:34:32.234Z,100.00
2022-09-26T22:37:00.141Z,100.00
2022-09-26T22:39:27.944Z,100.00
2022-09-26T22:41:55.812Z,100.00
2022-09-26T22:44:23.658Z,100.00
2022-09-26T22:46:51.446Z,100.00
2022-09-26T22:49:19.224Z,100.00
2022-09-26T22:51:48.432Z,100.00
2022-09-26T22:54:16.507Z,100.00
2022-09-26T22:56:44.367Z,100.00
2022-09-26T22:59:12.560Z,100.00
2022-09-26T23:01:40.489Z,100.00
2022-09-26T23:04:08.323Z,100.00
2022-09-26T23:06:36.165Z,100.00
2022-09-26T23:09:05.327Z,100.00
2022-09-26T23:11:33.383Z,100.00
2022-09-26T23:14:01.204Z,100.00
2022-09-26T23:16:29.158Z,100.00
2022-09-26T23:18:57.104Z,100.00
2022-09-26T23:21:26.872Z,100.00
2022-09-26T23:23:57.384Z,100.00
2022-09-26T23:26:31.740Z,100.00
2022-09-26T23:29:00.562Z,100.00
2022-09-26T23:31:29.609Z,100.00
2022-09-26T23:33:58.243Z,100.00
2022-09-26T23:36:26.391Z,100.00
2022-09-26T23:38:54.691Z,100.00
2022-09-26T23:41:22.576Z,100.00
2022-09-26T23:43:51.889Z,100.00
2022-09-26T23:46:20.206Z,100.00
2022-09-26T23:48:48.138Z,100.00
2022-09-26T23:51:16.006Z,100.00
2022-09-26T23:53:43.823Z,100.00
2022-09-26T23:56:14.897Z,100.00
2022-09-26T23:58:43.007Z,100.00
